createdAt,value
2017-06-16T15:41:53.067Z,1.45
2017-06-16T15:44:22.619Z,1.90
2017-06-16T15:46:52.120Z,1.48
2017-06-16T15:49:21.621Z,1.40
2017-06-16T15:51:51.116Z,1.40
2017-06-16T15:54:20.670Z,1.40
2017-06-16T15:56:50.195Z,1.30
2017-06-16T15:59:19.800Z,2.33
2017-06-16T16:01:49.295Z,1.30
2017-06-16T16:04:18.799Z,1.60
2017-06-16T16:06:48.330Z,2.93
2017-06-16T16:09:17.819Z,1.40
2017-06-16T16:11:47.339Z,2.50
2017-06-16T16:14:16.943Z,1.77
2017-06-16T16:16:46.496Z,2.00
2017-06-16T16:19:15.967Z,1.63
2017-06-16T16:21:46.268Z,2.53
2017-06-16T16:24:15.818Z,2.13
2017-06-16T16:26:45.332Z,1.57
2017-06-16T16:29:14.878Z,5.37
2017-06-16T16:31:44.377Z,4.57
2017-06-16T16:34:13.907Z,68.33
2017-06-16T16:36:43.393Z,53.23
2017-06-16T16:39:12.939Z,54.60
2017-06-16T16:41:42.532Z,48.67
2017-06-16T16:44:12.065Z,39.77
2017-06-16T16:46:42.308Z,77.10
2017-06-16T16:49:11.814Z,54.50
2017-06-16T16:51:41.353Z,44.63
2017-06-16T16:54:10.847Z,129.73
2017-06-16T16:56:40.387Z,148.53
2017-06-16T16:59:09.921Z,122.20
2017-06-16T17:01:39.466Z,89.43
2017-06-16T17:04:08.968Z,71.13
2017-06-16T17:06:38.930Z,51.10
2017-06-16T17:09:08.504Z,39.57
2017-06-16T17:11:38.062Z,28.43
2017-06-16T17:14:07.622Z,24.53
2017-06-16T17:16:37.145Z,16.80
2017-06-16T17:19:06.644Z,15.40
2017-06-16T17:21:36.215Z,13.00
2017-06-16T17:24:05.721Z,11.00
2017-06-16T17:26:35.250Z,9.63
2017-06-16T17:29:04.749Z,9.97
2017-06-16T17:31:34.236Z,7.57
2017-06-16T17:34:03.780Z,6.47
2017-06-16T17:36:33.262Z,12.53
2017-06-16T17:39:02.775Z,22.17
2017-06-16T17:41:32.316Z,20.63
2017-06-16T17:44:01.850Z,20.13
2017-06-16T17:46:31.363Z,15.37
2017-06-16T17:49:00.895Z,19.87
2017-06-16T17:51:30.472Z,19.97
2017-06-16T17:54:00.002Z,15.63
2017-06-16T17:56:29.914Z,16.77
2017-06-16T17:58:59.400Z,8.07
2017-06-16T18:01:28.902Z,8.93
2017-06-16T18:03:58.431Z,8.17
2017-06-16T18:06:27.940Z,7.33
2017-06-16T18:08:57.465Z,5.57
2017-06-16T18:11:26.954Z,3.73
2017-06-16T18:13:56.478Z,11.03
2017-06-16T18:16:25.977Z,15.33
2017-06-16T18:18:55.494Z,16.47
2017-06-16T18:21:24.991Z,14.00
2017-06-16T18:23:54.524Z,8.67
2017-06-16T18:26:24.044Z,19.10
2017-06-16T18:28:53.565Z,28.80
2017-06-16T18:31:23.066Z,51.17
2017-06-16T18:33:52.599Z,38.33
2017-06-16T18:36:22.140Z,36.93
2017-06-16T18:38:51.668Z,25.73
2017-06-16T18:41:21.215Z,21.93
2017-06-16T18:43:50.716Z,16.77
2017-06-16T18:46:20.251Z,13.33
2017-06-16T18:48:49.723Z,11.60
2017-06-16T18:51:19.274Z,9.90
2017-06-16T18:53:48.804Z,8.97
2017-06-16T18:56:18.345Z,6.00
2017-06-16T18:58:47.836Z,4.70
2017-06-16T19:01:17.375Z,4.50
2017-06-16T19:03:46.904Z,3.47
2017-06-16T19:06:16.598Z,3.20
2017-06-16T19:08:46.132Z,3.00
2017-06-16T19:11:15.677Z,2.43
